createdAt,value
2023-03-18T00:01:07.641Z,100296.81
2023-03-18T00:06:14.136Z,100290.52
2023-03-18T00:11:21.560Z,100288.14
2023-03-18T00:16:25.604Z,100290.87
2023-03-18T00:21:29.887Z,100284.45
2023-03-18T00:26:33.140Z,100277.66
2023-03-18T00:31:38.580Z,100277.41
2023-03-18T00:36:42.118Z,100273.88
2023-03-18T00:41:45.632Z,100272.19
2023-03-18T00:46:49.225Z,100274.21
2023-03-18T00:51:53.488Z,100267.69
2023-03-18T00:56:58.082Z,100261.20
2023-03-18T01:02:01.475Z,100260.38
2023-03-18T01:07:04.748Z,100253.42
2023-03-18T01:12:11.009Z,100252.56
2023-03-18T01:17:14.849Z,100248.41
2023-03-18T01:22:18.980Z,100248.55
2023-03-18T01:27:22.200Z,100250.06
2023-03-18T01:32:25.499Z,100241.78
2023-03-18T01:37:29.320Z,100233.61
2023-03-18T01:42:32.734Z,100230.92
2023-03-18T01:47:35.939Z,100227.34
2023-03-18T01:52:39.360Z,100229.13
2023-03-18T01:57:44.607Z,100225.13
2023-03-18T02:02:49.969Z,100223.52
2023-03-18T02:07:53.688Z,100230.04
2023-03-18T02:13:04.781Z,100226.18
2023-03-18T02:18:11.883Z,100226.27
2023-03-18T02:23:30.246Z,100226.81
2023-03-18T02:28:36.120Z,100224.63
2023-03-18T02:33:43.000Z,100222.18
2023-03-18T02:38:47.543Z,100218.05
2023-03-18T02:43:50.861Z,100218.83
2023-03-18T02:48:55.362Z,100214.69
2023-03-18T02:54:10.475Z,100218.16
2023-03-18T02:59:14.622Z,100218.35
2023-03-18T03:04:19.473Z,100217.63
2023-03-18T03:09:23.292Z,100214.86
2023-03-18T03:14:26.812Z,100217.38
2023-03-18T03:19:31.147Z,100220.98
2023-03-18T03:24:34.348Z,100225.79
2023-03-18T03:29:37.658Z,100216.45
2023-03-18T03:34:41.858Z,100207.44
2023-03-18T03:39:45.714Z,100204.45
2023-03-18T03:44:49.025Z,100200.98
2023-03-18T03:49:52.745Z,100198.50
2023-03-18T03:55:00.980Z,100202.44
2023-03-18T04:00:07.491Z,100205.62
2023-03-18T04:05:12.786Z,100207.29
2023-03-18T04:10:18.340Z,100203.08
2023-03-18T04:15:22.307Z,100204.44
2023-03-18T04:20:25.613Z,100210.27
2023-03-18T04:25:29.720Z,100213.80
2023-03-18T04:30:34.200Z,100218.97
2023-03-18T04:35:38.173Z,100215.38
2023-03-18T04:40:43.093Z,100205.61
2023-03-18T04:45:46.265Z,100200.52
2023-03-18T04:50:50.602Z,100194.87
2023-03-18T04:55:53.601Z,100184.98
2023-03-18T05:00:57.139Z,100182.99
2023-03-18T05:06:00.427Z,100183.48
2023-03-18T05:11:03.733Z,100178.91
2023-03-18T05:16:07.308Z,100181.30
2023-03-18T05:21:11.187Z,100182.30
2023-03-18T05:26:14.493Z,100186.95
2023-03-18T05:31:17.918Z,100183.44
2023-03-18T05:36:21.221Z,100186.91
2023-03-18T05:41:25.136Z,100192.61
2023-03-18T05:46:29.355Z,100193.09
2023-03-18T05:51:32.779Z,100190.51
2023-03-18T05:56:35.987Z,100187.41
2023-03-18T06:01:39.708Z,100187.27
2023-03-18T06:06:43.739Z,100188.22
2023-03-18T06:11:46.951Z,100185.86
2023-03-18T06:16:50.203Z,100187.23
2023-03-18T06:21:53.570Z,100183.99
2023-03-18T06:26:56.880Z,100191.45
2023-03-18T06:32:00.101Z,100197.81
2023-03-18T06:37:04.729Z,100195.95
2023-03-18T06:42:08.044Z,100187.14
2023-03-18T06:47:11.352Z,100190.41
2023-03-18T06:52:14.848Z,100194.00
2023-03-18T06:57:18.792Z,100200.80
2023-03-18T07:02:25.282Z,100201.03
2023-03-18T07:07:29.353Z,100197.06
2023-03-18T07:12:32.820Z,100202.02
2023-03-18T07:17:37.567Z,100199.36
2023-03-18T07:22:40.777Z,100206.73
2023-03-18T07:27:44.095Z,100211.42
2023-03-18T07:32:47.437Z,100205.77
2023-03-18T07:37:50.806Z,100196.27
2023-03-18T07:42:54.131Z,100183.02
2023-03-18T07:47:58.268Z,100185.30
2023-03-18T07:53:01.670Z,100181.27
2023-03-18T07:58:05.480Z,100183.31
2023-03-18T08:03:09.822Z,100186.43
2023-03-18T08:08:12.960Z,100184.38
2023-03-18T08:13:16.316Z,100180.75
2023-03-18T08:18:19.961Z,100185.55
2023-03-18T08:23:24.189Z,100189.67
2023-03-18T08:28:27.699Z,100197.46
2023-03-18T08:33:31.069Z,100196.39
2023-03-18T08:38:35.350Z,100199.92
2023-03-18T08:43:39.163Z,100202.46
2023-03-18T08:48:42.586Z,100204.87
2023-03-18T08:53:45.796Z,100198.16
2023-03-18T08:58:49.003Z,100195.82
2023-03-18T09:03:52.219Z,100194.02
2023-03-18T09:08:55.501Z,100196.37
2023-03-18T09:13:58.934Z,100192.05
2023-03-18T09:19:02.144Z,100191.88
2023-03-18T09:24:07.422Z,100190.50
2023-03-18T09:29:11.049Z,100194.56
2023-03-18T09:34:14.732Z,100186.66
2023-03-18T09:39:22.212Z,100190.70
2023-03-18T09:44:31.917Z,100184.02
2023-03-18T09:49:39.410Z,100186.30
2023-03-18T09:54:45.678Z,100181.08
2023-03-18T09:59:59.248Z,100181.15
2023-03-18T10:05:11.152Z,100185.80
2023-03-18T10:10:39.299Z,100182.25
2023-03-18T10:15:57.171Z,100178.58
2023-03-18T10:21:36.624Z,100175.30
2023-03-18T10:26:50.551Z,100174.88
2023-03-18T10:32:17.893Z,100174.61
2023-03-18T10:37:47.013Z,100168.05
2023-03-18T10:42:53.218Z,100170.20
2023-03-18T10:47:59.585Z,100161.93
2023-03-18T10:53:08.515Z,100155.62
2023-03-18T10:58:17.491Z,100151.34
2023-03-18T11:03:30.908Z,100150.98
2023-03-18T11:08:37.902Z,100139.14
2023-03-18T11:13:47.363Z,100135.14
2023-03-18T11:18:52.970Z,100121.14
2023-03-18T11:24:21.221Z,100111.19
2023-03-18T11:29:34.776Z,100104.34
2023-03-18T11:34:37.996Z,100092.46
2023-03-18T11:39:41.911Z,100073.04
2023-03-18T11:44:45.204Z,100068.29
2023-03-18T11:49:48.415Z,100057.48
2023-03-18T11:55:12.121Z,100052.30
2023-03-18T12:00:46.034Z,100053.83
2023-03-18T12:06:26.530Z,100033.82
2023-03-18T12:11:35.563Z,100016.19
2023-03-18T12:17:17.687Z,99996.11
2023-03-18T12:22:23.859Z,99993.06
2023-03-18T12:27:51.335Z,99989.09
2023-03-18T12:33:22.194Z,99996.48
2023-03-18T12:38:54.503Z,99996.58
2023-03-18T12:44:28.012Z,99994.34
2023-03-18T12:49:54.781Z,100004.96
2023-03-18T12:55:12.413Z,100018.31
2023-03-18T13:00:33.927Z,100027.14
2023-03-18T13:05:41.172Z,100027.53
2023-03-18T13:10:50.705Z,100026.77
2023-03-18T13:15:54.949Z,100023.22
2023-03-18T13:21:00.724Z,100022.11
2023-03-18T13:26:07.399Z,100019.52
2023-03-18T13:31:29.037Z,100011.78
2023-03-18T13:36:57.227Z,100014.10
2023-03-18T13:42:10.060Z,100008.60
2023-03-18T13:47:21.884Z,100008.83
2023-03-18T13:52:42.283Z,100006.11
2023-03-18T13:57:57.576Z,100000.45
2023-03-18T14:03:27.146Z,100004.52
2023-03-18T14:08:39.008Z,100001.84
2023-03-18T14:13:43.348Z,100000.23
2023-03-18T14:19:03.556Z,100002.34
2023-03-18T14:24:15.677Z,99998.20
2023-03-18T14:29:28.407Z,99994.29
2023-03-18T14:34:33.878Z,99991.21
2023-03-18T14:39:51.720Z,99990.50
2023-03-18T14:45:00.765Z,99992.83
2023-03-18T14:50:15.187Z,99990.46
2023-03-18T14:55:27.460Z,99990.63
2023-03-18T15:00:36.709Z,99993.59
2023-03-18T15:05:43.397Z,100009.60
2023-03-18T15:10:50.204Z,100010.81
2023-03-18T15:15:57.160Z,100015.30
2023-03-18T15:21:10.140Z,100012.57
2023-03-18T15:26:29.614Z,100009.04
2023-03-18T15:31:41.588Z,100013.36
2023-03-18T15:36:56.737Z,100013.86
2023-03-18T15:42:02.828Z,100013.30
2023-03-18T15:47:31.833Z,100014.94
2023-03-18T15:52:39.416Z,100012.66
2023-03-18T15:57:43.651Z,100009.86
2023-03-18T16:02:47.206Z,100011.75
2023-03-18T16:07:52.860Z,100015.04
2023-03-18T16:13:01.589Z,100021.95
2023-03-18T16:18:04.877Z,100024.63
2023-03-18T16:23:08.504Z,100019.65
2023-03-18T16:28:21.342Z,100019.93
2023-03-18T16:33:25.359Z,100015.72
2023-03-18T16:38:30.308Z,100012.05
2023-03-18T16:43:33.945Z,100008.54
2023-03-18T16:48:37.231Z,100007.23
2023-03-18T16:53:40.440Z,100010.02
2023-03-18T16:58:44.882Z,100017.70
2023-03-18T17:03:48.353Z,100015.36
2023-03-18T17:08:52.841Z,100023.70
2023-03-18T17:13:56.655Z,100025.41
2023-03-18T17:19:00.479Z,100028.80
2023-03-18T17:24:03.661Z,100026.71
2023-03-18T17:29:08.762Z,100024.55
2023-03-18T17:34:15.234Z,100023.11
2023-03-18T17:39:18.471Z,100016.94
2023-03-18T17:44:21.640Z,100017.55
2023-03-18T17:49:27.313Z,100018.55
2023-03-18T17:54:33.191Z,100019.71
2023-03-18T17:59:36.585Z,100027.15
2023-03-18T18:04:40.311Z,100029.79
2023-03-18T18:09:43.821Z,100027.09
2023-03-18T18:14:47.753Z,100027.54
2023-03-18T18:19:51.669Z,100026.57
2023-03-18T18:24:58.092Z,100021.34
2023-03-18T18:30:01.372Z,100020.95
2023-03-18T18:35:04.882Z,100031.11
2023-03-18T18:40:10.904Z,100033.56
2023-03-18T18:45:19.904Z,100031.25
2023-03-18T18:50:35.704Z,100020.92
2023-03-18T18:55:38.927Z,100019.32
2023-03-18T19:00:42.235Z,100022.39
2023-03-18T19:05:47.274Z,100020.75
2023-03-18T19:10:52.025Z,100017.75
2023-03-18T19:16:01.200Z,100016.71
2023-03-18T19:21:04.887Z,100017.77
2023-03-18T19:26:13.668Z,100019.98
2023-03-18T19:31:24.682Z,100018.00
2023-03-18T19:36:31.908Z,100013.72
2023-03-18T19:41:35.335Z,100016.19
2023-03-18T19:46:39.880Z,100024.91
2023-03-18T19:51:43.952Z,100026.58
2023-03-18T19:56:47.825Z,100027.06
2023-03-18T20:01:51.753Z,100029.00
2023-03-18T20:06:56.962Z,100026.59
2023-03-18T20:12:05.696Z,100025.41
2023-03-18T20:17:25.547Z,100024.17
2023-03-18T20:22:36.868Z,100023.96
2023-03-18T20:27:40.055Z,100025.98
2023-03-18T20:32:44.360Z,100025.77
2023-03-18T20:37:47.817Z,100031.30
2023-03-18T20:42:52.895Z,100030.89
2023-03-18T20:47:56.989Z,100032.70
2023-03-18T20:53:00.187Z,100030.81
2023-03-18T20:58:04.241Z,100038.95
2023-03-18T21:03:22.176Z,100039.99
2023-03-18T21:08:27.428Z,100035.06
2023-03-18T21:13:39.309Z,100036.80
2023-03-18T21:18:45.869Z,100037.06
2023-03-18T21:23:50.055Z,100033.04
2023-03-18T21:28:53.260Z,100023.23
2023-03-18T21:33:57.701Z,100021.88
2023-03-18T21:39:01.322Z,100021.08
2023-03-18T21:44:04.837Z,100020.79
2023-03-18T21:49:10.218Z,100017.73
2023-03-18T21:54:20.161Z,100017.79
2023-03-18T21:59:23.377Z,100013.49
2023-03-18T22:04:26.618Z,100009.41
2023-03-18T22:09:30.837Z,100008.80
2023-03-18T22:14:35.145Z,100004.23
2023-03-18T22:19:38.457Z,100008.23
2023-03-18T22:24:41.774Z,100003.63
2023-03-18T22:29:45.407Z,100002.81
2023-03-18T22:34:49.310Z,99998.83
2023-03-18T22:39:53.544Z,99999.73
2023-03-18T22:44:57.171Z,99998.58
2023-03-18T22:50:00.578Z,99998.66
2023-03-18T22:55:15.354Z,99996.75
2023-03-18T23:00:26.086Z,99990.45
2023-03-18T23:05:29.588Z,99992.55
2023-03-18T23:10:33.064Z,99988.56
2023-03-18T23:15:36.746Z,99983.81
2023-03-18T23:20:40.197Z,99984.42
2023-03-18T23:25:45.623Z,99982.83
2023-03-18T23:30:53.063Z,99978.95
2023-03-18T23:35:56.408Z,99978.73
2023-03-18T23:40:59.583Z,99975.31
2023-03-18T23:46:04.053Z,99976.38
2023-03-18T23:51:07.241Z,99977.20
2023-03-18T23:56:12.084Z,99981.02
